createdAt,value
2019-03-20T00:00:13.653Z,-0.40
2019-03-20T00:02:42.081Z,-0.40
2019-03-20T00:05:11.248Z,-0.40
2019-03-20T00:07:39.706Z,-0.50
2019-03-20T00:10:10.172Z,-0.70
2019-03-20T00:12:39.140Z,-0.90
2019-03-20T00:15:13.136Z,-1.00
2019-03-20T00:17:41.572Z,-1.00
2019-03-20T00:20:11.739Z,-1.00
2019-03-20T00:22:42.018Z,-1.10
2019-03-20T00:25:11.366Z,-1.00
2019-03-20T00:27:39.964Z,-1.00
2019-03-20T00:30:18.202Z,-1.00
2019-03-20T00:32:47.080Z,-0.90
2019-03-20T00:35:15.511Z,-0.90
2019-03-20T00:37:44.043Z,-0.90
2019-03-20T00:40:15.379Z,-0.90
2019-03-20T00:42:43.881Z,-0.80
2019-03-20T00:45:21.138Z,-0.80
2019-03-20T00:47:49.648Z,-0.80
2019-03-20T00:50:19.090Z,-0.80
2019-03-20T00:52:47.681Z,-0.80
2019-03-20T00:55:17.351Z,-0.70
2019-03-20T00:57:45.852Z,-0.70
2019-03-20T01:00:19.276Z,-0.60
2019-03-20T01:02:47.876Z,-0.60
2019-03-20T01:05:16.480Z,-0.60
2019-03-20T01:07:45.574Z,-0.60
2019-03-20T01:10:22.346Z,-0.70
2019-03-20T01:12:51.205Z,-0.90
2019-03-20T01:15:19.908Z,-0.90
2019-03-20T01:17:48.593Z,-1.00
2019-03-20T01:20:36.384Z,-1.00
2019-03-20T01:23:24.194Z,-1.00
2019-03-20T01:26:11.984Z,-1.00
2019-03-20T01:28:59.773Z,-1.00
2019-03-20T01:31:47.557Z,-1.00
2019-03-20T01:34:35.329Z,-1.00
2019-03-20T01:37:23.121Z,-1.00
2019-03-20T01:43:17.856Z,-1.10
2019-03-20T01:46:05.629Z,-1.00
2019-03-20T01:48:45.929Z,-1.00
2019-03-20T01:51:26.553Z,-1.00
2019-03-20T01:54:07.577Z,-1.00
2019-03-20T01:56:48.483Z,-1.00
2019-03-20T01:59:29.473Z,-1.30
2019-03-20T02:02:10.301Z,-1.40
2019-03-20T02:04:51.164Z,-1.50
2019-03-20T02:07:31.870Z,-1.50
2019-03-20T02:10:12.736Z,-1.50
2019-03-20T02:12:53.552Z,-1.50
2019-03-20T02:15:39.329Z,-1.50
2019-03-20T02:18:17.061Z,-1.50
2019-03-20T02:20:58.082Z,-1.50
2019-03-20T02:23:38.854Z,-1.40
2019-03-20T02:26:19.856Z,-1.40
2019-03-20T02:29:00.827Z,-1.40
2019-03-20T02:31:41.614Z,-1.50
2019-03-20T02:34:22.705Z,-1.50
2019-03-20T02:37:03.198Z,-1.50
2019-03-20T02:39:44.088Z,-1.50
2019-03-20T02:42:24.757Z,-1.50
2019-03-20T02:45:05.515Z,-1.50
2019-03-20T02:47:46.260Z,-1.50
2019-03-20T02:50:27.028Z,-1.40
2019-03-20T02:53:07.490Z,-1.50
2019-03-20T02:55:48.454Z,-1.40
2019-03-20T02:58:29.569Z,-1.40
2019-03-20T03:01:10.584Z,-1.40
2019-03-20T03:03:51.126Z,-1.40
2019-03-20T03:06:32.177Z,-1.40
2019-03-20T03:09:12.945Z,-1.50
2019-03-20T03:11:53.966Z,-1.70
2019-03-20T03:14:34.961Z,-1.80
2019-03-20T03:17:15.821Z,-1.90
2019-03-20T03:19:56.055Z,-2.00
2019-03-20T03:22:36.805Z,-2.00
2019-03-20T03:25:17.227Z,-2.00
2019-03-20T03:27:57.766Z,-2.00
2019-03-20T03:30:38.649Z,-2.00
2019-03-20T03:33:19.405Z,-2.00
2019-03-20T03:36:00.311Z,-1.90
2019-03-20T03:38:41.546Z,-2.00
2019-03-20T03:41:22.522Z,-2.00
2019-03-20T03:44:03.507Z,-2.00
2019-03-20T03:46:44.304Z,-2.00
2019-03-20T03:49:24.910Z,-2.00
2019-03-20T03:52:05.596Z,-2.10
2019-03-20T03:54:46.722Z,-2.00
2019-03-20T03:57:27.617Z,-2.00
2019-03-20T04:00:08.608Z,-2.10
2019-03-20T04:02:49.352Z,-2.20
2019-03-20T04:05:30.285Z,-2.20
2019-03-20T04:08:11.065Z,-2.20
2019-03-20T04:10:51.919Z,-2.30
2019-03-20T04:13:32.807Z,-2.30
2019-03-20T04:16:13.466Z,-2.30
2019-03-20T04:18:54.131Z,-2.30
2019-03-20T04:21:34.740Z,-2.30
2019-03-20T04:24:15.506Z,-2.30
2019-03-20T04:26:56.700Z,-2.40
2019-03-20T04:29:37.437Z,-2.30
2019-03-20T04:32:18.497Z,-2.30
2019-03-20T04:34:58.925Z,-2.30
2019-03-20T04:37:39.815Z,-2.20
2019-03-20T04:40:20.552Z,-2.30
2019-03-20T04:43:01.546Z,-2.30
2019-03-20T04:45:42.315Z,-2.30
2019-03-20T04:48:23.162Z,-2.30
2019-03-20T04:51:04.025Z,-2.20
2019-03-20T04:53:44.747Z,-2.20
2019-03-20T04:56:25.565Z,-2.10
2019-03-20T04:59:06.495Z,-2.20
2019-03-20T05:01:47.430Z,-2.30
2019-03-20T05:04:28.436Z,-2.40
2019-03-20T05:07:09.206Z,-2.40
2019-03-20T05:09:50.406Z,-2.50
2019-03-20T05:12:30.916Z,-2.50
2019-03-20T05:15:11.569Z,-2.50
2019-03-20T05:17:52.177Z,-2.50
2019-03-20T05:20:32.702Z,-2.40
2019-03-20T05:23:13.199Z,-2.40
2019-03-20T05:25:53.852Z,-2.50
2019-03-20T05:28:34.984Z,-2.40
2019-03-20T05:31:15.863Z,-2.40
2019-03-20T05:33:56.889Z,-2.40
2019-03-20T05:36:37.764Z,-2.50
2019-03-20T05:39:18.858Z,-2.50
2019-03-20T05:41:59.207Z,-2.60
2019-03-20T05:44:40.265Z,-2.70
2019-03-20T05:47:20.914Z,-2.80
2019-03-20T05:50:01.905Z,-2.80
2019-03-20T05:52:42.681Z,-2.60
2019-03-20T05:55:23.799Z,-2.50
2019-03-20T05:58:04.427Z,-2.00
2019-03-20T06:00:45.329Z,-1.10
2019-03-20T06:03:26.324Z,-0.50
2019-03-20T06:06:06.919Z,0.10
2019-03-20T06:08:47.545Z,0.50
2019-03-20T06:11:28.484Z,0.90
2019-03-20T06:14:09.257Z,0.80
2019-03-20T06:16:50.145Z,0.50
2019-03-20T06:19:31.209Z,0.90
2019-03-20T06:22:12.273Z,1.80
2019-03-20T06:24:52.491Z,2.60
2019-03-20T06:27:33.268Z,3.10
2019-03-20T06:30:13.762Z,3.20
2019-03-20T06:32:54.563Z,3.10
2019-03-20T06:35:35.577Z,3.20
2019-03-20T06:38:16.062Z,3.60
2019-03-20T06:40:57.032Z,3.70
2019-03-20T06:43:38.138Z,3.80
2019-03-20T06:46:18.909Z,3.80
2019-03-20T06:48:59.852Z,4.30
2019-03-20T06:51:40.582Z,4.60
2019-03-20T06:54:21.623Z,4.80
2019-03-20T06:57:02.366Z,4.90
2019-03-20T06:59:43.057Z,5.30
2019-03-20T07:02:23.623Z,5.60
2019-03-20T07:05:04.366Z,5.70
2019-03-20T07:07:44.885Z,5.70
2019-03-20T07:10:25.125Z,5.70
2019-03-20T07:13:06.077Z,6.10
2019-03-20T07:15:46.590Z,5.90
2019-03-20T07:18:27.266Z,5.90
2019-03-20T07:21:08.324Z,6.20
2019-03-20T07:23:49.237Z,6.40
2019-03-20T07:26:29.798Z,6.20
2019-03-20T07:29:11.773Z,6.30
2019-03-20T07:31:52.805Z,6.60
2019-03-20T07:34:33.763Z,6.90
2019-03-20T07:37:14.755Z,7.20
2019-03-20T07:39:55.574Z,7.20
2019-03-20T07:42:36.504Z,6.80
2019-03-20T07:45:17.310Z,7.00
2019-03-20T07:47:57.913Z,7.00
2019-03-20T07:50:38.958Z,6.80
2019-03-20T07:53:19.857Z,7.60
2019-03-20T07:56:00.381Z,8.30
2019-03-20T07:58:41.285Z,8.00
2019-03-20T08:01:21.485Z,8.70
2019-03-20T08:04:02.561Z,8.90
2019-03-20T08:06:43.355Z,9.70
2019-03-20T08:09:25.644Z,10.40
2019-03-20T08:12:06.065Z,10.70
2019-03-20T08:14:47.025Z,11.20
2019-03-20T08:17:27.928Z,12.20
2019-03-20T08:20:08.621Z,12.80
2019-03-20T08:22:49.319Z,13.10
2019-03-20T08:25:30.081Z,13.30
2019-03-20T08:28:10.979Z,12.90
2019-03-20T08:30:51.786Z,12.90
2019-03-20T08:33:32.722Z,12.80
2019-03-20T08:36:13.569Z,12.70
2019-03-20T08:38:53.831Z,12.80
2019-03-20T08:41:34.365Z,13.10
2019-03-20T08:44:14.982Z,13.60
2019-03-20T08:46:55.177Z,13.80
2019-03-20T08:49:36.381Z,13.80
2019-03-20T08:52:17.141Z,14.10
2019-03-20T08:54:58.069Z,14.30
2019-03-20T08:57:39.033Z,14.20
2019-03-20T09:00:20.057Z,14.20
2019-03-20T09:03:00.937Z,14.30
2019-03-20T09:05:41.422Z,14.40
2019-03-20T09:08:29.403Z,14.40
2019-03-20T09:11:04.114Z,14.30
2019-03-20T09:13:44.900Z,14.70
2019-03-20T09:16:26.029Z,14.70
2019-03-20T09:19:06.943Z,14.80
2019-03-20T09:21:47.862Z,15.00
2019-03-20T09:24:28.401Z,15.20
2019-03-20T09:29:51.345Z,15.50
2019-03-20T09:32:32.434Z,15.90
2019-03-20T09:35:13.525Z,15.70
2019-03-20T09:37:54.463Z,15.80
2019-03-20T09:40:35.002Z,16.00
2019-03-20T09:43:16.006Z,16.50
2019-03-20T09:45:57.241Z,16.70
2019-03-20T09:48:37.619Z,16.90
2019-03-20T09:51:18.229Z,17.20
2019-03-20T09:53:58.826Z,16.70
2019-03-20T09:56:42.525Z,16.70
2019-03-20T09:59:23.253Z,16.80
2019-03-20T10:02:04.077Z,17.10
2019-03-20T10:04:45.158Z,17.70
2019-03-20T10:07:26.317Z,17.90
2019-03-20T10:10:06.927Z,17.80
2019-03-20T10:12:47.385Z,17.30
2019-03-20T10:15:28.346Z,16.30
2019-03-20T10:18:09.293Z,15.60
2019-03-20T10:20:50.051Z,16.00
2019-03-20T10:23:31.167Z,16.30
2019-03-20T10:26:11.997Z,17.10
2019-03-20T10:28:52.838Z,16.10
2019-03-20T10:31:33.775Z,15.00
2019-03-20T10:34:14.717Z,15.80
2019-03-20T10:36:55.773Z,16.30
2019-03-20T10:39:36.360Z,16.10
2019-03-20T10:42:17.421Z,17.30
2019-03-20T10:44:58.221Z,18.10
2019-03-20T10:47:39.091Z,16.60
2019-03-20T10:50:21.412Z,16.60
2019-03-20T10:53:02.043Z,17.00
2019-03-20T10:55:43.013Z,17.70
2019-03-20T10:58:23.913Z,17.10
2019-03-20T11:01:04.902Z,15.80
2019-03-20T11:03:45.826Z,15.20
2019-03-20T11:06:27.023Z,15.10
2019-03-20T11:09:17.666Z,15.40
2019-03-20T11:11:50.404Z,15.40
2019-03-20T11:14:31.214Z,15.20
2019-03-20T11:17:11.928Z,15.70
2019-03-20T11:19:52.374Z,16.90
2019-03-20T11:22:33.325Z,16.80
2019-03-20T11:25:13.978Z,17.90
2019-03-20T11:27:54.970Z,18.80
2019-03-20T11:30:36.066Z,19.30
2019-03-20T11:33:17.048Z,19.70
2019-03-20T11:35:57.827Z,19.30
2019-03-20T11:38:38.888Z,19.20
2019-03-20T11:41:19.541Z,20.00
2019-03-20T11:44:00.683Z,20.50
2019-03-20T11:46:41.853Z,20.70
2019-03-20T11:49:22.733Z,20.40
2019-03-20T11:52:05.256Z,17.80
2019-03-20T11:54:45.357Z,17.10
2019-03-20T11:57:26.123Z,16.40
2019-03-20T12:00:07.073Z,16.50
2019-03-20T12:02:47.601Z,16.00
2019-03-20T12:05:28.640Z,15.90
2019-03-20T12:08:09.161Z,16.30
2019-03-20T12:10:49.796Z,16.70
2019-03-20T12:13:30.578Z,16.80
2019-03-20T12:16:11.713Z,16.90
2019-03-20T12:18:52.446Z,16.80
2019-03-20T12:21:33.047Z,17.00
2019-03-20T12:24:13.910Z,16.30
2019-03-20T12:26:54.669Z,16.00
2019-03-20T12:29:35.443Z,15.50
2019-03-20T12:32:16.401Z,14.90
2019-03-20T12:34:57.383Z,14.90
2019-03-20T12:37:38.264Z,15.80
2019-03-20T12:40:19.301Z,15.70
2019-03-20T12:43:00.353Z,16.20
2019-03-20T12:45:41.217Z,16.70
2019-03-20T12:48:21.917Z,17.20
2019-03-20T12:51:02.882Z,17.20
2019-03-20T12:53:43.879Z,16.80
2019-03-20T12:56:24.885Z,16.90
2019-03-20T12:59:05.972Z,16.60
2019-03-20T13:01:46.720Z,17.20
2019-03-20T13:04:27.919Z,16.50
2019-03-20T13:07:09.122Z,17.10
2019-03-20T13:09:49.865Z,16.50
2019-03-20T13:12:30.529Z,15.80
2019-03-20T13:15:11.441Z,15.30
2019-03-20T13:17:52.210Z,15.00
2019-03-20T13:20:21.068Z,15.50
2019-03-20T13:23:12.352Z,16.20
2019-03-20T13:25:40.806Z,16.60
2019-03-20T13:28:09.230Z,16.60
2019-03-20T13:30:49.749Z,16.40
2019-03-20T13:33:25.633Z,17.80
2019-03-20T13:35:48.341Z,18.50
2019-03-20T13:38:16.864Z,19.20
2019-03-20T13:40:45.368Z,16.80
2019-03-20T13:43:13.885Z,16.50
2019-03-20T13:45:42.310Z,16.60
2019-03-20T13:48:10.749Z,16.40
2019-03-20T13:50:39.253Z,16.00
2019-03-20T13:53:07.737Z,14.90
2019-03-20T13:55:36.182Z,14.20
2019-03-20T13:58:04.676Z,14.10
2019-03-20T14:00:33.174Z,14.70
2019-03-20T14:03:01.618Z,15.10
2019-03-20T14:05:30.059Z,15.10
2019-03-20T14:07:58.500Z,14.90
2019-03-20T14:10:29.037Z,14.00
2019-03-20T14:12:57.534Z,13.50
2019-03-20T14:15:26.007Z,13.80
2019-03-20T14:17:54.589Z,14.20
2019-03-20T14:20:27.349Z,13.90
2019-03-20T14:22:55.774Z,14.00
2019-03-20T14:25:24.464Z,13.50
2019-03-20T14:27:53.228Z,13.30
2019-03-20T14:30:26.688Z,13.30
2019-03-20T14:32:55.781Z,13.20
2019-03-20T14:35:24.396Z,13.50
2019-03-20T14:37:52.888Z,13.50
2019-03-20T14:40:36.210Z,13.80
2019-03-20T14:43:01.586Z,13.90
2019-03-20T14:45:30.223Z,13.50
2019-03-20T14:47:58.782Z,13.00
2019-03-20T14:50:28.281Z,12.80
2019-03-20T14:52:56.798Z,12.80
2019-03-20T14:55:25.516Z,12.80
2019-03-20T14:57:53.948Z,12.50
2019-03-20T15:00:29.498Z,12.60
2019-03-20T15:02:58.087Z,12.60
2019-03-20T15:05:26.587Z,12.70
2019-03-20T15:07:55.200Z,12.60
2019-03-20T15:10:27.745Z,12.50
2019-03-20T15:12:56.712Z,12.30
2019-03-20T15:15:28.264Z,12.20
2019-03-20T15:17:56.720Z,12.40
2019-03-20T15:20:25.222Z,12.60
2019-03-20T15:22:53.668Z,12.50
2019-03-20T15:25:22.095Z,12.40
2019-03-20T15:27:50.545Z,12.20
2019-03-20T15:30:23.929Z,12.20
2019-03-20T15:32:52.530Z,12.20
2019-03-20T15:35:21.039Z,12.20
2019-03-20T15:37:49.587Z,12.20
2019-03-20T15:40:25.516Z,12.10
2019-03-20T15:42:53.960Z,12.10
2019-03-20T15:45:22.399Z,12.00
2019-03-20T15:47:50.910Z,12.10
2019-03-20T15:50:23.164Z,12.00
2019-03-20T15:52:51.609Z,11.80
2019-03-20T15:55:25.456Z,11.70
2019-03-20T15:57:53.884Z,11.70
2019-03-20T16:00:23.172Z,11.80
2019-03-20T16:02:54.864Z,11.70
2019-03-20T16:05:23.364Z,11.70
2019-03-20T16:07:51.792Z,11.70
2019-03-20T16:10:22.176Z,11.50
2019-03-20T16:12:50.609Z,11.30
2019-03-20T16:15:21.244Z,11.30
2019-03-20T16:17:49.984Z,11.30
2019-03-20T16:20:18.575Z,11.40
2019-03-20T16:22:47.015Z,11.50
2019-03-20T16:25:20.812Z,11.50
2019-03-20T16:27:49.346Z,11.50
2019-03-20T16:30:26.695Z,11.50
2019-03-20T16:32:56.523Z,11.30
2019-03-20T16:35:25.290Z,11.20
2019-03-20T16:37:53.720Z,11.00
2019-03-20T16:40:24.203Z,10.80
2019-03-20T16:42:52.625Z,10.70
2019-03-20T16:45:26.698Z,10.60
2019-03-20T16:47:55.264Z,10.50
2019-03-20T16:50:23.975Z,10.50
2019-03-20T16:52:52.541Z,10.50
2019-03-20T16:55:21.416Z,10.50
2019-03-20T16:57:49.874Z,10.30
2019-03-20T17:00:31.897Z,10.10
2019-03-20T17:03:00.492Z,10.10
2019-03-20T17:05:30.068Z,10.10
2019-03-20T17:07:58.664Z,10.10
2019-03-20T17:10:35.702Z,10.10
2019-03-20T17:13:04.960Z,10.00
2019-03-20T17:15:38.323Z,9.90
2019-03-20T17:18:07.487Z,9.90
2019-03-20T17:20:36.000Z,9.70
2019-03-20T17:23:07.675Z,9.50
2019-03-20T17:25:35.652Z,9.40
2019-03-20T17:28:05.029Z,9.40
2019-03-20T17:30:38.119Z,9.30
2019-03-20T17:33:07.288Z,9.10
2019-03-20T17:35:35.721Z,9.00
2019-03-20T17:38:04.708Z,9.00
2019-03-20T17:40:33.179Z,8.90
2019-03-20T17:43:01.982Z,8.90
2019-03-20T17:45:31.254Z,8.80
2019-03-20T17:47:59.699Z,8.60
2019-03-20T17:50:32.236Z,8.40
2019-03-20T17:53:00.836Z,8.30
2019-03-20T17:55:29.385Z,8.20
2019-03-20T17:57:57.829Z,8.10
2019-03-20T18:00:36.939Z,8.00
2019-03-20T18:03:06.516Z,7.80
2019-03-20T18:05:35.080Z,7.70
2019-03-20T18:08:04.650Z,7.70
2019-03-20T18:10:33.307Z,7.70
2019-03-20T18:13:01.902Z,7.70
2019-03-20T18:15:30.397Z,7.70
2019-03-20T18:17:58.929Z,7.80
2019-03-20T18:20:27.368Z,7.80
2019-03-20T18:22:55.889Z,7.70
2019-03-20T18:25:24.317Z,7.60
2019-03-20T18:27:52.756Z,7.50
2019-03-20T18:30:28.698Z,7.50
2019-03-20T18:32:57.150Z,7.40
2019-03-20T18:35:25.757Z,7.40
2019-03-20T18:37:54.457Z,7.30
2019-03-20T18:40:24.025Z,7.20
2019-03-20T18:42:52.546Z,7.20
2019-03-20T18:45:22.208Z,7.10
2019-03-20T18:47:50.817Z,7.00
2019-03-20T18:50:24.262Z,6.90
2019-03-20T18:52:53.000Z,6.80
2019-03-20T18:55:21.587Z,6.60
2019-03-20T18:57:50.348Z,6.60
2019-03-20T19:00:24.586Z,6.50
2019-03-20T19:02:55.628Z,6.50
2019-03-20T19:05:35.979Z,6.40
2019-03-20T19:08:04.916Z,6.40
2019-03-20T19:10:33.417Z,6.30
2019-03-20T19:13:02.004Z,6.30
2019-03-20T19:15:30.433Z,6.20
2019-03-20T19:17:58.878Z,6.10
2019-03-20T19:20:27.301Z,6.20
2019-03-20T19:22:55.819Z,6.10
2019-03-20T19:25:24.362Z,6.10
2019-03-20T19:27:52.813Z,6.00
2019-03-20T19:30:22.713Z,5.90
2019-03-20T19:32:51.210Z,5.80
2019-03-20T19:35:19.968Z,5.70
2019-03-20T19:37:48.554Z,5.60
2019-03-20T19:40:18.620Z,5.60
2019-03-20T19:42:47.062Z,5.50
2019-03-20T19:45:16.737Z,5.40
2019-03-20T19:47:45.397Z,5.30
2019-03-20T19:50:18.025Z,5.10
2019-03-20T19:52:46.453Z,5.10
2019-03-20T19:55:17.108Z,5.00
2019-03-20T19:57:45.756Z,4.90
2019-03-20T20:00:24.345Z,4.70
2019-03-20T20:02:52.834Z,4.60
2019-03-20T20:05:21.333Z,4.60
2019-03-20T20:07:49.769Z,4.50
2019-03-20T20:10:19.144Z,4.50
2019-03-20T20:12:47.925Z,4.40
2019-03-20T20:15:24.238Z,4.30
2019-03-20T20:17:52.740Z,4.30
2019-03-20T20:20:29.361Z,4.10
2019-03-20T20:22:57.912Z,4.00
2019-03-20T20:25:26.432Z,4.00
2019-03-20T20:27:54.940Z,3.90
2019-03-20T20:30:23.391Z,3.90
2019-03-20T20:32:51.913Z,3.90
2019-03-20T20:35:20.506Z,3.90
2019-03-20T20:37:50.183Z,3.90
2019-03-20T20:40:22.568Z,3.80
2019-03-20T20:42:50.998Z,3.80
2019-03-20T20:45:19.508Z,3.70
2019-03-20T20:47:48.012Z,3.50
2019-03-20T20:50:17.596Z,3.40
2019-03-20T20:52:46.553Z,3.40
2019-03-20T20:55:16.417Z,3.30
2019-03-20T20:57:44.861Z,3.30
2019-03-20T21:00:16.459Z,3.30
2019-03-20T21:02:44.920Z,3.20
2019-03-20T21:05:13.419Z,3.10
2019-03-20T21:07:41.860Z,3.10
2019-03-20T21:10:20.412Z,3.00
2019-03-20T21:12:56.274Z,3.00
2019-03-20T21:15:30.836Z,3.00
2019-03-20T21:18:14.474Z,3.00
2019-03-20T21:20:43.348Z,2.90
2019-03-20T21:23:37.856Z,2.70
2019-03-20T21:26:24.192Z,2.70
2019-03-20T21:29:12.080Z,2.60
2019-03-20T21:31:46.501Z,2.60
2019-03-20T21:34:23.779Z,2.50
2019-03-20T21:37:24.207Z,2.50
2019-03-20T21:39:52.688Z,2.50
2019-03-20T21:42:51.693Z,2.40
2019-03-20T21:45:47.362Z,2.50
2019-03-20T21:48:15.865Z,2.40
2019-03-20T21:50:56.615Z,2.30
2019-03-20T21:54:01.846Z,2.20
2019-03-20T21:56:42.627Z,2.20
2019-03-20T21:59:45.491Z,2.20
2019-03-20T22:02:41.876Z,2.20
2019-03-20T22:05:29.660Z,2.20
2019-03-20T22:07:58.084Z,2.10
2019-03-20T22:10:29.613Z,2.10
2019-03-20T22:13:18.957Z,2.00
2019-03-20T22:16:07.525Z,2.00
2019-03-20T22:19:04.923Z,1.90
2019-03-20T22:22:05.177Z,1.80
2019-03-20T22:24:42.269Z,1.80
2019-03-20T22:27:38.030Z,1.70
2019-03-20T22:30:08.402Z,1.70
2019-03-20T22:32:57.045Z,1.60
2019-03-20T22:35:34.165Z,1.50
2019-03-20T22:38:05.252Z,1.40
2019-03-20T22:41:00.957Z,1.40
2019-03-20T22:43:35.192Z,1.40
2019-03-20T22:46:35.420Z,1.30
2019-03-20T22:49:38.744Z,1.30
2019-03-20T22:52:16.052Z,1.30
2019-03-20T22:55:01.957Z,1.20
2019-03-20T22:57:35.952Z,1.10
2019-03-20T23:00:07.538Z,1.10
2019-03-20T23:02:41.568Z,1.10
2019-03-20T23:05:10.836Z,1.20
2019-03-20T23:07:39.280Z,1.20
2019-03-20T23:10:16.063Z,1.10
2019-03-20T23:12:44.693Z,1.10
2019-03-20T23:15:19.061Z,1.10
2019-03-20T23:17:47.521Z,1.00
2019-03-20T23:20:27.716Z,0.90
2019-03-20T23:22:56.188Z,0.90
2019-03-20T23:25:24.655Z,0.90
2019-03-20T23:27:53.078Z,0.90
2019-03-20T23:30:24.519Z,1.00
2019-03-20T23:32:52.958Z,0.90
2019-03-20T23:35:21.391Z,0.80
2019-03-20T23:37:49.833Z,0.90
2019-03-20T23:40:18.324Z,0.90
2019-03-20T23:42:49.873Z,0.80
2019-03-20T23:45:19.580Z,0.80
2019-03-20T23:47:51.316Z,0.80
2019-03-20T23:50:19.764Z,0.80
2019-03-20T23:52:48.196Z,0.70
2019-03-20T23:55:16.638Z,0.70
2019-03-20T23:57:45.064Z,0.60
